sensor_id;sensor_type;location;lat;lon;timestamp;P1;P2;P0
63662;PMS5003;49815;51.618;0.336;2022-12-18T00:00:25;60;44;
63662;PMS5003;49815;51.618;0.336;2022-12-18T00:02:50;56;43;
63662;PMS5003;49815;51.618;0.336;2022-12-18T00:05:15;61;48;
63662;PMS5003;49815;51.618;0.336;2022-12-18T00:07:40;52;45;
63662;PMS5003;49815;51.618;0.336;2022-12-18T00:10:07;56;51;
63662;PMS5003;49815;51.618;0.336;2022-12-18T00:12:31;60;51;
63662;PMS5003;49815;51.618;0.336;2022-12-18T00:14:57;47;43;
63662;PMS5003;49815;51.618;0.336;2022-12-18T00:17:22;53;47;
63662;PMS5003;49815;51.618;0.336;2022-12-18T00:19:48;55;51;
63662;PMS5003;49815;51.618;0.336;2022-12-18T00:22:13;60;51;
63662;PMS5003;49815;51.618;0.336;2022-12-18T00:24:38;54;45;
63662;PMS5003;49815;51.618;0.336;2022-12-18T00:27:04;52;40;
63662;PMS5003;49815;51.618;0.336;2022-12-18T00:29:29;49;48;
63662;PMS5003;49815;51.618;0.336;2022-12-18T00:31:56;46;43;
63662;PMS5003;49815;51.618;0.336;2022-12-18T00:34:21;50;44;
63662;PMS5003;49815;51.618;0.336;2022-12-18T00:36:46;48;41;
63662;PMS5003;49815;51.618;0.336;2022-12-18T00:39:10;47;34;
63662;PMS5003;49815;51.618;0.336;2022-12-18T00:41:36;43;39;
63662;PMS5003;49815;51.618;0.336;2022-12-18T00:44:02;55;42;
63662;PMS5003;49815;51.618;0.336;2022-12-18T00:46:27;55;48;
63662;PMS5003;49815;51.618;0.336;2022-12-18T00:48:51;40;30;
63662;PMS5003;49815;51.618;0.336;2022-12-18T00:51:17;57;36;
63662;PMS5003;49815;51.618;0.336;2022-12-18T00:53:43;50;40;
63662;PMS5003;49815;51.618;0.336;2022-12-18T00:56:09;47;39;
63662;PMS5003;49815;51.618;0.336;2022-12-18T00:58:34;54;36;
63662;PMS5003;49815;51.618;0.336;2022-12-18T01:00:59;55;41;
63662;PMS5003;49815;51.618;0.336;2022-12-18T01:03:25;55;48;
63662;PMS5003;49815;51.618;0.336;2022-12-18T01:05:51;49;43;
63662;PMS5003;49815;51.618;0.336;2022-12-18T01:08:17;50;41;
63662;PMS5003;49815;51.618;0.336;2022-12-18T01:10:41;42;37;
63662;PMS5003;49815;51.618;0.336;2022-12-18T01:13:06;50;43;
63662;PMS5003;49815;51.618;0.336;2022-12-18T01:15:31;39;33;
63662;PMS5003;49815;51.618;0.336;2022-12-18T01:17:57;54;45;
63662;PMS5003;49815;51.618;0.336;2022-12-18T01:20:22;49;43;
63662;PMS5003;49815;51.618;0.336;2022-12-18T01:22:48;47;42;
63662;PMS5003;49815;51.618;0.336;2022-12-18T01:25:14;65;51;
63662;PMS5003;49815;51.618;0.336;2022-12-18T01:27:39;53;43;
63662;PMS5003;49815;51.618;0.336;2022-12-18T01:30:07;46;39;
63662;PMS5003;49815;51.618;0.336;2022-12-18T01:32:30;49;38;
63662;PMS5003;49815;51.618;0.336;2022-12-18T01:34:56;46;38;
63662;PMS5003;49815;51.618;0.336;2022-12-18T01:37:21;49;44;
63662;PMS5003;49815;51.618;0.336;2022-12-18T01:39:46;46;39;
63662;PMS5003;49815;51.618;0.336;2022-12-18T01:42:13;51;43;
63662;PMS5003;49815;51.618;0.336;2022-12-18T01:47:02;55;47;
63662;PMS5003;49815;51.618;0.336;2022-12-18T01:49:27;51;45;
63662;PMS5003;49815;51.618;0.336;2022-12-18T01:51:53;53;38;
63662;PMS5003;49815;51.618;0.336;2022-12-18T01:54:19;57;41;
63662;PMS5003;49815;51.618;0.336;2022-12-18T01:56:43;50;44;
63662;PMS5003;49815;51.618;0.336;2022-12-18T01:59:09;52;44;
63662;PMS5003;49815;51.618;0.336;2022-12-18T02:01:35;41;33;
63662;PMS5003;49815;51.618;0.336;2022-12-18T02:06:27;46;37;
63662;PMS5003;49815;51.618;0.336;2022-12-18T02:08:55;49;40;
63662;PMS5003;49815;51.618;0.336;2022-12-18T02:11:18;54;45;
63662;PMS5003;49815;51.618;0.336;2022-12-18T02:13:43;54;43;
63662;PMS5003;49815;51.618;0.336;2022-12-18T02:16:08;54;44;
63662;PMS5003;49815;51.618;0.336;2022-12-18T02:18:35;51;47;
63662;PMS5003;49815;51.618;0.336;2022-12-18T02:20:59;54;46;
63662;PMS5003;49815;51.618;0.336;2022-12-18T02:23:27;55;47;
63662;PMS5003;49815;51.618;0.336;2022-12-18T02:25:57;47;42;
63662;PMS5003;49815;51.618;0.336;2022-12-18T02:28:14;50;40;
63662;PMS5003;49815;51.618;0.336;2022-12-18T02:30:39;47;41;
63662;PMS5003;49815;51.618;0.336;2022-12-18T02:33:06;54;44;
63662;PMS5003;49815;51.618;0.336;2022-12-18T02:35:30;47;40;
63662;PMS5003;49815;51.618;0.336;2022-12-18T02:37:56;70;47;
63662;PMS5003;49815;51.618;0.336;2022-12-18T02:40:23;51;41;
63662;PMS5003;49815;51.618;0.336;2022-12-18T02:42:46;55;45;
63662;PMS5003;49815;51.618;0.336;2022-12-18T02:45:12;46;31;
63662;PMS5003;49815;51.618;0.336;2022-12-18T02:47:39;47;43;
63662;PMS5003;49815;51.618;0.336;2022-12-18T02:50:07;58;49;
63662;PMS5003;49815;51.618;0.336;2022-12-18T02:52:30;62;49;
63662;PMS5003;49815;51.618;0.336;2022-12-18T02:54:57;56;51;
63662;PMS5003;49815;51.618;0.336;2022-12-18T02:57:23;42;37;
63662;PMS5003;49815;51.618;0.336;2022-12-18T02:59:47;68;53;
63662;PMS5003;49815;51.618;0.336;2022-12-18T03:02:15;62;49;
63662;PMS5003;49815;51.618;0.336;2022-12-18T03:04:38;43;41;
63662;PMS5003;49815;51.618;0.336;2022-12-18T03:07:02;55;45;
63662;PMS5003;49815;51.618;0.336;2022-12-18T03:09:29;58;46;
63662;PMS5003;49815;51.618;0.336;2022-12-18T03:11:53;49;38;
63662;PMS5003;49815;51.618;0.336;2022-12-18T03:14:18;56;46;
63662;PMS5003;49815;51.618;0.336;2022-12-18T03:16:43;47;38;
63662;PMS5003;49815;51.618;0.336;2022-12-18T03:19:10;54;42;
63662;PMS5003;49815;51.618;0.336;2022-12-18T03:21:35;54;50;
63662;PMS5003;49815;51.618;0.336;2022-12-18T03:23:59;49;41;
63662;PMS5003;49815;51.618;0.336;2022-12-18T03:26:25;50;43;
63662;PMS5003;49815;51.618;0.336;2022-12-18T03:28:51;47;41;
63662;PMS5003;49815;51.618;0.336;2022-12-18T03:31:16;49;42;
63662;PMS5003;49815;51.618;0.336;2022-12-18T03:33:41;65;46;
63662;PMS5003;49815;51.618;0.336;2022-12-18T03:36:07;50;43;
63662;PMS5003;49815;51.618;0.336;2022-12-18T03:38:32;58;45;
63662;PMS5003;49815;51.618;0.336;2022-12-18T03:40:58;54;45;
63662;PMS5003;49815;51.618;0.336;2022-12-18T03:43:25;50;43;
63662;PMS5003;49815;51.618;0.336;2022-12-18T03:45:51;54;47;
63662;PMS5003;49815;51.618;0.336;2022-12-18T03:48:14;50;41;
63662;PMS5003;49815;51.618;0.336;2022-12-18T03:50:41;56;43;
63662;PMS5003;49815;51.618;0.336;2022-12-18T03:53:08;50;43;
63662;PMS5003;49815;51.618;0.336;2022-12-18T03:55:30;52;42;
63662;PMS5003;49815;51.618;0.336;2022-12-18T03:57:55;51;42;
63662;PMS5003;49815;51.618;0.336;2022-12-18T04:00:21;42;34;
63662;PMS5003;49815;51.618;0.336;2022-12-18T04:02:48;43;39;
63662;PMS5003;49815;51.618;0.336;2022-12-18T04:05:11;39;35;
63662;PMS5003;49815;51.618;0.336;2022-12-18T04:07:37;59;49;
63662;PMS5003;49815;51.618;0.336;2022-12-18T04:10:04;43;39;
63662;PMS5003;49815;51.618;0.336;2022-12-18T04:12:29;47;36;
63662;PMS5003;49815;51.618;0.336;2022-12-18T04:14:55;49;41;
63662;PMS5003;49815;51.618;0.336;2022-12-18T04:17:22;47;40;
63662;PMS5003;49815;51.618;0.336;2022-12-18T04:19:46;56;43;
63662;PMS5003;49815;51.618;0.336;2022-12-18T04:22:11;45;39;
63662;PMS5003;49815;51.618;0.336;2022-12-18T04:24:36;60;45;
63662;PMS5003;49815;51.618;0.336;2022-12-18T04:27:01;46;40;
63662;PMS5003;49815;51.618;0.336;2022-12-18T04:29:27;47;41;
63662;PMS5003;49815;51.618;0.336;2022-12-18T04:31:52;41;37;
63662;PMS5003;49815;51.618;0.336;2022-12-18T04:34:17;48;39;
63662;PMS5003;49815;51.618;0.336;2022-12-18T04:36:43;44;39;
63662;PMS5003;49815;51.618;0.336;2022-12-18T04:39:08;45;41;
63662;PMS5003;49815;51.618;0.336;2022-12-18T04:41:34;44;33;
63662;PMS5003;49815;51.618;0.336;2022-12-18T04:43:59;52;44;
63662;PMS5003;49815;51.618;0.336;2022-12-18T04:46:24;54;44;
63662;PMS5003;49815;51.618;0.336;2022-12-18T04:48:51;50;40;
63662;PMS5003;49815;51.618;0.336;2022-12-18T04:51:16;52;46;
63662;PMS5003;49815;51.618;0.336;2022-12-18T04:53:41;53;50;
63662;PMS5003;49815;51.618;0.336;2022-12-18T04:56:07;54;44;
63662;PMS5003;49815;51.618;0.336;2022-12-18T04:58:32;55;44;
63662;PMS5003;49815;51.618;0.336;2022-12-18T05:00:57;54;48;
63662;PMS5003;49815;51.618;0.336;2022-12-18T05:03:23;54;41;
63662;PMS5003;49815;51.618;0.336;2022-12-18T05:05:49;46;42;
63662;PMS5003;49815;51.618;0.336;2022-12-18T05:08:14;58;41;
63662;PMS5003;49815;51.618;0.336;2022-12-18T05:10:39;63;58;
63662;PMS5003;49815;51.618;0.336;2022-12-18T05:13:03;46;41;
63662;PMS5003;49815;51.618;0.336;2022-12-18T05:15:29;52;49;
63662;PMS5003;49815;51.618;0.336;2022-12-18T05:17:55;45;44;
63662;PMS5003;49815;51.618;0.336;2022-12-18T05:20:19;53;50;
63662;PMS5003;49815;51.618;0.336;2022-12-18T05:22:44;51;37;
63662;PMS5003;49815;51.618;0.336;2022-12-18T05:25:10;58;52;
63662;PMS5003;49815;51.618;0.336;2022-12-18T05:27:35;46;44;
63662;PMS5003;49815;51.618;0.336;2022-12-18T05:30:01;58;45;
63662;PMS5003;49815;51.618;0.336;2022-12-18T05:32:26;59;45;
63662;PMS5003;49815;51.618;0.336;2022-12-18T05:34:52;55;44;
63662;PMS5003;49815;51.618;0.336;2022-12-18T05:37:17;49;40;
63662;PMS5003;49815;51.618;0.336;2022-12-18T05:39:43;58;49;
63662;PMS5003;49815;51.618;0.336;2022-12-18T05:42:09;41;36;
63662;PMS5003;49815;51.618;0.336;2022-12-18T05:44:33;41;37;
63662;PMS5003;49815;51.618;0.336;2022-12-18T05:46:58;54;41;
63662;PMS5003;49815;51.618;0.336;2022-12-18T05:49:25;51;46;
63662;PMS5003;49815;51.618;0.336;2022-12-18T05:51:50;52;41;
63662;PMS5003;49815;51.618;0.336;2022-12-18T05:54:15;49;46;
63662;PMS5003;49815;51.618;0.336;2022-12-18T05:56:41;56;46;
63662;PMS5003;49815;51.618;0.336;2022-12-18T05:59:06;63;46;
63662;PMS5003;49815;51.618;0.336;2022-12-18T06:01:31;60;45;
63662;PMS5003;49815;51.618;0.336;2022-12-18T06:03:57;55;47;
63662;PMS5003;49815;51.618;0.336;2022-12-18T06:06:23;57;49;
63662;PMS5003;49815;51.618;0.336;2022-12-18T06:08:48;53;42;
63662;PMS5003;49815;51.618;0.336;2022-12-18T06:11:13;49;40;
63662;PMS5003;49815;51.618;0.336;2022-12-18T06:13:38;53;44;
63662;PMS5003;49815;51.618;0.336;2022-12-18T06:16:04;60;49;
63662;PMS5003;49815;51.618;0.336;2022-12-18T06:18:30;51;43;
63662;PMS5003;49815;51.618;0.336;2022-12-18T06:20:56;58;40;
63662;PMS5003;49815;51.618;0.336;2022-12-18T06:23:21;43;40;
63662;PMS5003;49815;51.618;0.336;2022-12-18T06:25:46;39;31;
63662;PMS5003;49815;51.618;0.336;2022-12-18T06:28:12;49;45;
63662;PMS5003;49815;51.618;0.336;2022-12-18T06:30:37;46;45;
63662;PMS5003;49815;51.618;0.336;2022-12-18T06:33:03;53;39;
63662;PMS5003;49815;51.618;0.336;2022-12-18T06:35:29;45;37;
63662;PMS5003;49815;51.618;0.336;2022-12-18T06:37:54;53;39;
63662;PMS5003;49815;51.618;0.336;2022-12-18T06:40:20;42;40;
63662;PMS5003;49815;51.618;0.336;2022-12-18T06:42:45;44;40;
63662;PMS5003;49815;51.618;0.336;2022-12-18T06:45:09;49;39;
63662;PMS5003;49815;51.618;0.336;2022-12-18T06:47:36;49;40;
63662;PMS5003;49815;51.618;0.336;2022-12-18T06:50:00;51;42;
63662;PMS5003;49815;51.618;0.336;2022-12-18T06:52:26;51;43;
63662;PMS5003;49815;51.618;0.336;2022-12-18T06:54:52;47;39;
63662;PMS5003;49815;51.618;0.336;2022-12-18T06:57:16;44;30;
63662;PMS5003;49815;51.618;0.336;2022-12-18T06:59:42;47;44;
63662;PMS5003;49815;51.618;0.336;2022-12-18T07:02:10;50;39;
63662;PMS5003;49815;51.618;0.336;2022-12-18T07:04:33;45;39;
63662;PMS5003;49815;51.618;0.336;2022-12-18T07:06:59;42;39;
63662;PMS5003;49815;51.618;0.336;2022-12-18T07:09:24;51;42;
63662;PMS5003;49815;51.618;0.336;2022-12-18T07:11:50;42;38;
63662;PMS5003;49815;51.618;0.336;2022-12-18T07:14:15;42;37;
63662;PMS5003;49815;51.618;0.336;2022-12-18T07:16:41;43;37;
63662;PMS5003;49815;51.618;0.336;2022-12-18T07:19:08;33;32;
63662;PMS5003;49815;51.618;0.336;2022-12-18T07:21:33;47;42;
63662;PMS5003;49815;51.618;0.336;2022-12-18T07:23:58;48;41;
63662;PMS5003;49815;51.618;0.336;2022-12-18T07:26:24;37;33;
63662;PMS5003;49815;51.618;0.336;2022-12-18T07:28:55;42;32;
63662;PMS5003;49815;51.618;0.336;2022-12-18T07:31:16;41;36;
63662;PMS5003;49815;51.618;0.336;2022-12-18T07:33:40;39;33;
63662;PMS5003;49815;51.618;0.336;2022-12-18T07:36:06;41;35;
63662;PMS5003;49815;51.618;0.336;2022-12-18T07:38:32;43;36;
63662;PMS5003;49815;51.618;0.336;2022-12-18T07:41:00;48;42;
63662;PMS5003;49815;51.618;0.336;2022-12-18T07:43:22;41;32;
63662;PMS5003;49815;51.618;0.336;2022-12-18T07:45:49;34;33;
63662;PMS5003;49815;51.618;0.336;2022-12-18T07:48:14;46;37;
63662;PMS5003;49815;51.618;0.336;2022-12-18T07:50:39;41;32;
63662;PMS5003;49815;51.618;0.336;2022-12-18T07:53:04;42;31;
63662;PMS5003;49815;51.618;0.336;2022-12-18T07:55:29;48;41;
63662;PMS5003;49815;51.618;0.336;2022-12-18T07:57:55;35;32;
63662;PMS5003;49815;51.618;0.336;2022-12-18T08:00:22;47;41;
63662;PMS5003;49815;51.618;0.336;2022-12-18T08:02:45;45;37;
63662;PMS5003;49815;51.618;0.336;2022-12-18T08:05:11;42;36;
63662;PMS5003;49815;51.618;0.336;2022-12-18T08:07:37;38;31;
63662;PMS5003;49815;51.618;0.336;2022-12-18T08:10:02;52;41;
63662;PMS5003;49815;51.618;0.336;2022-12-18T08:12:27;37;35;
63662;PMS5003;49815;51.618;0.336;2022-12-18T08:14:52;37;31;
63662;PMS5003;49815;51.618;0.336;2022-12-18T08:17:20;48;41;
63662;PMS5003;49815;51.618;0.336;2022-12-18T08:19:43;36;35;
63662;PMS5003;49815;51.618;0.336;2022-12-18T08:22:09;35;32;
63662;PMS5003;49815;51.618;0.336;2022-12-18T08:24:34;37;28;
63662;PMS5003;49815;51.618;0.336;2022-12-18T08:26:59;45;42;
63662;PMS5003;49815;51.618;0.336;2022-12-18T08:29:25;38;33;
63662;PMS5003;49815;51.618;0.336;2022-12-18T08:31:51;32;31;
63662;PMS5003;49815;51.618;0.336;2022-12-18T08:34:16;39;33;
63662;PMS5003;49815;51.618;0.336;2022-12-18T08:36:41;46;37;
63662;PMS5003;49815;51.618;0.336;2022-12-18T08:39:07;39;39;
63662;PMS5003;49815;51.618;0.336;2022-12-18T08:41:32;41;33;
63662;PMS5003;49815;51.618;0.336;2022-12-18T08:43:57;48;39;
63662;PMS5003;49815;51.618;0.336;2022-12-18T08:46:23;46;39;
63662;PMS5003;49815;51.618;0.336;2022-12-18T08:48:49;39;36;
63662;PMS5003;49815;51.618;0.336;2022-12-18T08:51:16;34;32;
63662;PMS5003;49815;51.618;0.336;2022-12-18T08:53:40;48;43;
63662;PMS5003;49815;51.618;0.336;2022-12-18T08:56:07;52;39;
63662;PMS5003;49815;51.618;0.336;2022-12-18T08:58:30;48;42;
63662;PMS5003;49815;51.618;0.336;2022-12-18T09:00:59;38;32;
63662;PMS5003;49815;51.618;0.336;2022-12-18T09:03:22;47;37;
63662;PMS5003;49815;51.618;0.336;2022-12-18T09:05:47;38;32;
63662;PMS5003;49815;51.618;0.336;2022-12-18T09:08:12;47;39;
63662;PMS5003;49815;51.618;0.336;2022-12-18T09:10:41;45;42;
63662;PMS5003;49815;51.618;0.336;2022-12-18T09:13:03;43;42;
63662;PMS5003;49815;51.618;0.336;2022-12-18T09:15:30;49;37;
63662;PMS5003;49815;51.618;0.336;2022-12-18T09:17:55;38;37;
63662;PMS5003;49815;51.618;0.336;2022-12-18T09:20:20;49;38;
63662;PMS5003;49815;51.618;0.336;2022-12-18T09:22:46;44;35;
63662;PMS5003;49815;51.618;0.336;2022-12-18T09:25:11;43;38;
63662;PMS5003;49815;51.618;0.336;2022-12-18T09:27:37;54;42;
63662;PMS5003;49815;51.618;0.336;2022-12-18T09:30:03;49;39;
63662;PMS5003;49815;51.618;0.336;2022-12-18T09:32:28;47;44;
63662;PMS5003;49815;51.618;0.336;2022-12-18T09:34:53;53;43;
63662;PMS5003;49815;51.618;0.336;2022-12-18T09:37:19;43;40;
63662;PMS5003;49815;51.618;0.336;2022-12-18T09:39:44;46;41;
63662;PMS5003;49815;51.618;0.336;2022-12-18T09:42:11;44;40;
63662;PMS5003;49815;51.618;0.336;2022-12-18T09:44:36;50;43;
63662;PMS5003;49815;51.618;0.336;2022-12-18T09:47:04;56;46;
63662;PMS5003;49815;51.618;0.336;2022-12-18T09:49:27;43;35;
63662;PMS5003;49815;51.618;0.336;2022-12-18T09:51:54;49;42;
63662;PMS5003;49815;51.618;0.336;2022-12-18T09:54:20;47;44;
63662;PMS5003;49815;51.618;0.336;2022-12-18T09:56:43;50;48;
63662;PMS5003;49815;51.618;0.336;2022-12-18T09:59:14;51;46;
63662;PMS5003;49815;51.618;0.336;2022-12-18T10:01:34;53;52;
63662;PMS5003;49815;51.618;0.336;2022-12-18T10:04:00;56;45;
63662;PMS5003;49815;51.618;0.336;2022-12-18T10:06:27;50;41;
63662;PMS5003;49815;51.618;0.336;2022-12-18T10:08:52;47;47;
63662;PMS5003;49815;51.618;0.336;2022-12-18T10:11:21;47;42;
63662;PMS5003;49815;51.618;0.336;2022-12-18T10:13:41;45;43;
63662;PMS5003;49815;51.618;0.336;2022-12-18T10:16:11;51;47;
63662;PMS5003;49815;51.618;0.336;2022-12-18T10:18:36;48;45;
63662;PMS5003;49815;51.618;0.336;2022-12-18T10:20:58;53;41;
63662;PMS5003;49815;51.618;0.336;2022-12-18T10:23:24;56;50;
63662;PMS5003;49815;51.618;0.336;2022-12-18T10:25:51;52;43;
63662;PMS5003;49815;51.618;0.336;2022-12-18T10:28:14;45;42;
63662;PMS5003;49815;51.618;0.336;2022-12-18T10:30:39;58;45;
63662;PMS5003;49815;51.618;0.336;2022-12-18T10:33:04;48;46;
63662;PMS5003;49815;51.618;0.336;2022-12-18T10:35:30;57;50;
63662;PMS5003;49815;51.618;0.336;2022-12-18T10:38:04;49;45;
63662;PMS5003;49815;51.618;0.336;2022-12-18T10:40:22;60;52;
63662;PMS5003;49815;51.618;0.336;2022-12-18T10:42:46;60;50;
63662;PMS5003;49815;51.618;0.336;2022-12-18T10:47:42;50;45;
63662;PMS5003;49815;51.618;0.336;2022-12-18T10:50:03;48;41;
63662;PMS5003;49815;51.618;0.336;2022-12-18T10:52:27;52;49;
63662;PMS5003;49815;51.618;0.336;2022-12-18T10:54:54;56;49;
63662;PMS5003;49815;51.618;0.336;2022-12-18T10:59:51;53;47;
63662;PMS5003;49815;51.618;0.336;2022-12-18T11:02:10;54;49;
63662;PMS5003;49815;51.618;0.336;2022-12-18T11:04:35;59;50;
63662;PMS5003;49815;51.618;0.336;2022-12-18T11:07:02;56;54;
63662;PMS5003;49815;51.618;0.336;2022-12-18T11:09:27;56;49;
63662;PMS5003;49815;51.618;0.336;2022-12-18T11:11:53;49;45;
63662;PMS5003;49815;51.618;0.336;2022-12-18T11:14:19;50;49;
63662;PMS5003;49815;51.618;0.336;2022-12-18T11:16:43;57;50;
63662;PMS5003;49815;51.618;0.336;2022-12-18T11:19:11;60;57;
63662;PMS5003;49815;51.618;0.336;2022-12-18T11:21:38;51;48;
63662;PMS5003;49815;51.618;0.336;2022-12-18T11:24:00;55;49;
63662;PMS5003;49815;51.618;0.336;2022-12-18T11:26:25;54;48;
63662;PMS5003;49815;51.618;0.336;2022-12-18T11:28:51;59;51;
63662;PMS5003;49815;51.618;0.336;2022-12-18T11:31:18;52;48;
63662;PMS5003;49815;51.618;0.336;2022-12-18T11:33:41;60;56;
63662;PMS5003;49815;51.618;0.336;2022-12-18T11:36:06;53;49;
63662;PMS5003;49815;51.618;0.336;2022-12-18T11:38:32;52;50;
63662;PMS5003;49815;51.618;0.336;2022-12-18T11:40:58;59;47;
63662;PMS5003;49815;51.618;0.336;2022-12-18T11:43:25;54;51;
63662;PMS5003;49815;51.618;0.336;2022-12-18T11:45:49;58;54;
63662;PMS5003;49815;51.618;0.336;2022-12-18T11:48:14;57;52;
63662;PMS5003;49815;51.618;0.336;2022-12-18T11:50:41;60;54;
63662;PMS5003;49815;51.618;0.336;2022-12-18T11:53:04;64;52;
63662;PMS5003;49815;51.618;0.336;2022-12-18T11:55:32;60;55;
63662;PMS5003;49815;51.618;0.336;2022-12-18T11:57:56;55;49;
63662;PMS5003;49815;51.618;0.336;2022-12-18T12:00:20;52;44;
63662;PMS5003;49815;51.618;0.336;2022-12-18T12:05:15;56;53;
63662;PMS5003;49815;51.618;0.336;2022-12-18T12:07:38;58;50;
63662;PMS5003;49815;51.618;0.336;2022-12-18T12:10:05;53;46;
63662;PMS5003;49815;51.618;0.336;2022-12-18T12:12:31;61;47;
63662;PMS5003;49815;51.618;0.336;2022-12-18T12:14:55;50;43;
63662;PMS5003;49815;51.618;0.336;2022-12-18T12:17:21;51;44;
63662;PMS5003;49815;51.618;0.336;2022-12-18T12:19:47;60;54;
63662;PMS5003;49815;51.618;0.336;2022-12-18T12:22:10;55;51;
63662;PMS5003;49815;51.618;0.336;2022-12-18T12:24:38;56;54;
63662;PMS5003;49815;51.618;0.336;2022-12-18T12:27:02;57;54;
63662;PMS5003;49815;51.618;0.336;2022-12-18T12:29:29;58;54;
63662;PMS5003;49815;51.618;0.336;2022-12-18T12:31:56;46;44;
63662;PMS5003;49815;51.618;0.336;2022-12-18T12:34:18;74;61;
63662;PMS5003;49815;51.618;0.336;2022-12-18T12:36:45;51;44;
63662;PMS5003;49815;51.618;0.336;2022-12-18T12:39:08;52;50;
63662;PMS5003;49815;51.618;0.336;2022-12-18T12:41:34;58;51;
63662;PMS5003;49815;51.618;0.336;2022-12-18T12:43:59;49;42;
63662;PMS5003;49815;51.618;0.336;2022-12-18T12:46:24;62;52;
63662;PMS5003;49815;51.618;0.336;2022-12-18T12:48:50;50;45;
63662;PMS5003;49815;51.618;0.336;2022-12-18T12:51:15;58;50;
63662;PMS5003;49815;51.618;0.336;2022-12-18T12:53:40;61;50;
63662;PMS5003;49815;51.618;0.336;2022-12-18T12:56:05;57;54;
63662;PMS5003;49815;51.618;0.336;2022-12-18T12:58:33;57;51;
63662;PMS5003;49815;51.618;0.336;2022-12-18T13:00:58;62;58;
63662;PMS5003;49815;51.618;0.336;2022-12-18T13:03:26;57;52;
63662;PMS5003;49815;51.618;0.336;2022-12-18T13:05:48;55;48;
63662;PMS5003;49815;51.618;0.336;2022-12-18T13:08:12;55;44;
63662;PMS5003;49815;51.618;0.336;2022-12-18T13:10:38;51;45;
63662;PMS5003;49815;51.618;0.336;2022-12-18T13:13:03;54;48;
63662;PMS5003;49815;51.618;0.336;2022-12-18T13:15:30;53;51;
63662;PMS5003;49815;51.618;0.336;2022-12-18T13:20:20;54;48;
63662;PMS5003;49815;51.618;0.336;2022-12-18T13:22:46;51;43;
63662;PMS5003;49815;51.618;0.336;2022-12-18T13:30:00;55;49;
63662;PMS5003;49815;51.618;0.336;2022-12-18T13:32:26;44;43;
63662;PMS5003;49815;51.618;0.336;2022-12-18T13:39:43;48;48;
63662;PMS5003;49815;51.618;0.336;2022-12-18T13:44:35;58;48;
63662;PMS5003;49815;51.618;0.336;2022-12-18T13:46:59;47;42;
63662;PMS5003;49815;51.618;0.336;2022-12-18T13:49:26;52;45;
63662;PMS5003;49815;51.618;0.336;2022-12-18T13:51:51;57;43;
63662;PMS5003;49815;51.618;0.336;2022-12-18T13:54:18;62;46;
63662;PMS5003;49815;51.618;0.336;2022-12-18T13:56:43;44;42;
63662;PMS5003;49815;51.618;0.336;2022-12-18T13:59:09;40;38;
63662;PMS5003;49815;51.618;0.336;2022-12-18T14:01:31;49;49;
63662;PMS5003;49815;51.618;0.336;2022-12-18T14:06:22;38;32;
63662;PMS5003;49815;51.618;0.336;2022-12-18T14:08:48;39;37;
63662;PMS5003;49815;51.618;0.336;2022-12-18T14:11:18;38;36;
63662;PMS5003;49815;51.618;0.336;2022-12-18T14:13:40;44;40;
63662;PMS5003;49815;51.618;0.336;2022-12-18T14:16:05;44;41;
63662;PMS5003;49815;51.618;0.336;2022-12-18T14:18:38;50;39;
63662;PMS5003;49815;51.618;0.336;2022-12-18T14:20:57;49;39;
63662;PMS5003;49815;51.618;0.336;2022-12-18T14:23:25;45;39;
63662;PMS5003;49815;51.618;0.336;2022-12-18T14:25:47;44;40;
63662;PMS5003;49815;51.618;0.336;2022-12-18T14:28:13;42;37;
63662;PMS5003;49815;51.618;0.336;2022-12-18T14:30:39;37;33;
63662;PMS5003;49815;51.618;0.336;2022-12-18T14:33:04;41;35;
63662;PMS5003;49815;51.618;0.336;2022-12-18T14:35:28;38;32;
63662;PMS5003;49815;51.618;0.336;2022-12-18T14:37:53;39;36;
63662;PMS5003;49815;51.618;0.336;2022-12-18T14:40:20;43;41;
63662;PMS5003;49815;51.618;0.336;2022-12-18T14:42:45;37;37;
63662;PMS5003;49815;51.618;0.336;2022-12-18T14:47:35;44;42;
63662;PMS5003;49815;51.618;0.336;2022-12-18T14:50:00;41;37;
63662;PMS5003;49815;51.618;0.336;2022-12-18T14:52:27;43;34;
63662;PMS5003;49815;51.618;0.336;2022-12-18T14:54:51;34;34;
63662;PMS5003;49815;51.618;0.336;2022-12-18T14:57:18;38;33;
63662;PMS5003;49815;51.618;0.336;2022-12-18T14:59:41;33;32;
63662;PMS5003;49815;51.618;0.336;2022-12-18T15:02:10;31;28;
63662;PMS5003;49815;51.618;0.336;2022-12-18T15:04:33;35;33;
63662;PMS5003;49815;51.618;0.336;2022-12-18T15:07:05;34;32;
63662;PMS5003;49815;51.618;0.336;2022-12-18T15:09:24;37;31;
63662;PMS5003;49815;51.618;0.336;2022-12-18T15:11:49;36;33;
63662;PMS5003;49815;51.618;0.336;2022-12-18T15:16:39;32;26;
63662;PMS5003;49815;51.618;0.336;2022-12-18T15:19:06;26;25;
63662;PMS5003;49815;51.618;0.336;2022-12-18T15:21:31;36;32;
63662;PMS5003;49815;51.618;0.336;2022-12-18T15:23:56;33;27;
63662;PMS5003;49815;51.618;0.336;2022-12-18T15:26:22;34;33;
63662;PMS5003;49815;51.618;0.336;2022-12-18T15:28:48;38;33;
63662;PMS5003;49815;51.618;0.336;2022-12-18T15:31:21;27;25;
63662;PMS5003;49815;51.618;0.336;2022-12-18T15:33:39;29;27;
63662;PMS5003;49815;51.618;0.336;2022-12-18T15:36:04;27;26;
63662;PMS5003;49815;51.618;0.336;2022-12-18T15:38:29;33;32;
63662;PMS5003;49815;51.618;0.336;2022-12-18T15:40:54;33;32;
63662;PMS5003;49815;51.618;0.336;2022-12-18T15:43:20;31;26;
63662;PMS5003;49815;51.618;0.336;2022-12-18T15:45:45;30;28;
63662;PMS5003;49815;51.618;0.336;2022-12-18T15:48:20;37;33;
63662;PMS5003;49815;51.618;0.336;2022-12-18T15:50:36;25;24;
63662;PMS5003;49815;51.618;0.336;2022-12-18T15:53:01;28;25;
63662;PMS5003;49815;51.618;0.336;2022-12-18T15:55:26;26;22;
63662;PMS5003;49815;51.618;0.336;2022-12-18T15:57:52;25;22;
63662;PMS5003;49815;51.618;0.336;2022-12-18T16:00:17;22;22;
63662;PMS5003;49815;51.618;0.336;2022-12-18T16:02:42;24;22;
63662;PMS5003;49815;51.618;0.336;2022-12-18T16:05:09;26;21;
63662;PMS5003;49815;51.618;0.336;2022-12-18T16:07:33;27;26;
63662;PMS5003;49815;51.618;0.336;2022-12-18T16:09:58;24;21;
63662;PMS5003;49815;51.618;0.336;2022-12-18T16:12:24;28;20;
63662;PMS5003;49815;51.618;0.336;2022-12-18T16:14:49;30;28;
63662;PMS5003;49815;51.618;0.336;2022-12-18T16:17:15;22;21;
63662;PMS5003;49815;51.618;0.336;2022-12-18T16:19:40;37;30;
63662;PMS5003;49815;51.618;0.336;2022-12-18T16:22:08;25;25;
63662;PMS5003;49815;51.618;0.336;2022-12-18T16:24:32;30;27;
63662;PMS5003;49815;51.618;0.336;2022-12-18T16:26:57;33;23;
63662;PMS5003;49815;51.618;0.336;2022-12-18T16:29:23;20;19;
63662;PMS5003;49815;51.618;0.336;2022-12-18T16:31:48;27;22;
63662;PMS5003;49815;51.618;0.336;2022-12-18T16:34:15;27;25;
63662;PMS5003;49815;51.618;0.336;2022-12-18T16:36:39;30;26;
63662;PMS5003;49815;51.618;0.336;2022-12-18T16:39:05;28;25;